Hauptseite
METAR-TAF:

METAR-TAF

Flughäfen :

Aeroflex-Andover Airport

Andover, New Jersey, Vereinigte Staaten

Breite: 41-00-32N, Länge: 074-44-12W, Höhe: 177 m

Beobachtung

Neuester Wetterbericht von vor 18 Minuten, um 20:54 UTC
Windstille
Temperatur 4°C
Luftfeuchtigkeit 100%
Luftdruck 1011 hPa

METAR: K12N 092054Z AUTO 00000KT 04/04 A2986 RMK AO1 SLP120 P0005 60021 T00390039 56029

Zeit: 16:12 (21:12 UTC)


TAF: fehlend

Wetterbeobachtungen und Prognosen von mehr als 4000 Flughäfen (METAR und TAF Bericht).

Die verfügbaren Stationen werden durch gelbe und rote Markierungen auf der Karte dargestellt.

Führen Sie die Maus auf sie, um den Namen der Station zu sehen.

Darauf klicken, um die Beobachtung von Wetterbeobachtungen und Prognosen zu sehen.

Um die Karte zu ändern : klicken Sie auf den grünen Tasten mit einem schwarzen Kreuz Zum Vergrößern, auf den grünen Button mit einem Gedankenstrich zu verkleinern, oder auf die grünen Pfeile für benachbarte Karten.


METAR-TAF: